Duolun, China
Current Conditions -  °F | °C
As of 9:00 AM on Saturday 29 Nov 2014 (Local Time) from ZBAA Reporting Station
Haze Haze  
Wind Chill: 32°   Ceiling: Unl
Heat Index: 36°   Visibility: 0.93mi
Dew Point: 30°   Wind: 4mph
Humidity: 81%   Direction: 60°ENE
Pressure: 30.18"   Gusts: NA
Location:  42.18°N, 116.47°E
Report Text: ZBAA 290100Z 06002MPS 030V090 1500 R01/1200NR36R/1300NR36L/1700N BR FEW004 02/M01 Q1022 BECMG TL0140 1400 BR
Loading
Personal Weather Stations






























Interactive Weather Map New forecast layout! Learn more

10-Day Weather Forecast

Advertisements
Track Severe Weather on mobile